createdAt,value
2018-08-10T00:01:30.134Z,95627.00
2018-08-10T00:04:00.585Z,95630.00
2018-08-10T00:06:31.471Z,95628.00
2018-08-10T00:09:01.562Z,95630.00
2018-08-10T00:11:31.749Z,95641.00
2018-08-10T00:14:02.066Z,95646.00
2018-08-10T00:16:32.170Z,95641.00
2018-08-10T00:19:02.433Z,95644.00
2018-08-10T00:21:32.559Z,95648.00
2018-08-10T00:24:02.869Z,95656.00
2018-08-10T00:26:33.216Z,95671.00
2018-08-10T00:29:03.287Z,95686.00
2018-08-10T00:31:49.131Z,95687.00
2018-08-10T00:34:19.409Z,95685.00
2018-08-10T00:36:49.544Z,95689.00
2018-08-10T00:39:20.277Z,95697.00
2018-08-10T00:41:50.974Z,95699.00
2018-08-10T00:44:21.339Z,95700.00
2018-08-10T00:46:51.705Z,95702.00
2018-08-10T00:49:21.859Z,95703.00
2018-08-10T00:51:52.100Z,95722.00
2018-08-10T00:54:22.616Z,95715.00
2018-08-10T00:56:52.932Z,95722.00
2018-08-10T00:59:23.263Z,95717.00
2018-08-10T01:01:53.520Z,95734.00
2018-08-10T01:04:23.559Z,95736.00
2018-08-10T01:06:54.040Z,95735.00
2018-08-10T01:09:24.237Z,95746.00
2018-08-10T01:11:54.447Z,95742.00
2018-08-10T01:14:24.628Z,95743.00
2018-08-10T01:16:54.802Z,95738.00
2018-08-10T01:19:25.785Z,95741.00
2018-08-10T01:21:56.012Z,95742.00
2018-08-10T01:24:26.397Z,95733.00
2018-08-10T01:26:56.654Z,95733.00
2018-08-10T01:29:27.018Z,95730.00
2018-08-10T01:31:57.070Z,95733.00
2018-08-10T01:34:27.461Z,95731.00
2018-08-10T01:36:57.561Z,95730.00
2018-08-10T01:39:27.867Z,95729.00
2018-08-10T01:41:58.124Z,95729.00
2018-08-10T01:44:28.526Z,95726.00
2018-08-10T01:46:58.672Z,95738.00
2018-08-10T01:49:28.860Z,95732.00
2018-08-10T01:51:59.043Z,95739.00
2018-08-10T01:54:29.316Z,95733.00
2018-08-10T01:56:59.659Z,95738.00
2018-08-10T01:59:31.170Z,95734.00
2018-08-10T02:02:02.315Z,95733.00
2018-08-10T02:04:32.700Z,95735.00
2018-08-10T02:07:03.008Z,95735.00
2018-08-10T02:09:33.572Z,95733.00
2018-08-10T02:12:04.772Z,95734.00
2018-08-10T02:14:34.949Z,95737.00
2018-08-10T02:17:05.186Z,95739.00
2018-08-10T02:19:39.125Z,95746.00
2018-08-10T02:22:09.418Z,95747.00
2018-08-10T02:24:39.558Z,95750.00
2018-08-10T02:27:10.228Z,95743.00
2018-08-10T02:29:40.421Z,95743.00
2018-08-10T02:32:11.051Z,95748.00
2018-08-10T02:34:41.334Z,95740.00
2018-08-10T02:37:11.660Z,95742.00
2018-08-10T02:39:42.557Z,95743.00
2018-08-10T02:42:12.783Z,95742.00
2018-08-10T02:44:43.057Z,95743.00
2018-08-10T02:47:13.219Z,95750.00
2018-08-10T02:49:43.339Z,95751.00
2018-08-10T02:52:13.699Z,95764.00
2018-08-10T02:54:43.923Z,95763.00
2018-08-10T02:57:14.827Z,95768.00
2018-08-10T02:59:45.848Z,95770.00
2018-08-10T03:02:16.963Z,95770.00
2018-08-10T03:04:47.342Z,95767.00
2018-08-10T03:07:17.529Z,95775.00
2018-08-10T03:09:47.780Z,95770.00
2018-08-10T03:12:17.991Z,95778.00
2018-08-10T03:14:48.216Z,95787.00
2018-08-10T03:17:18.291Z,95783.00
2018-08-10T03:19:48.903Z,95783.00
2018-08-10T03:22:19.246Z,95781.00
2018-08-10T03:24:49.427Z,95781.00
2018-08-10T03:27:19.843Z,95791.00
2018-08-10T03:29:50.059Z,95796.00
2018-08-10T03:32:20.422Z,95799.00
2018-08-10T03:34:50.521Z,95802.00
2018-08-10T03:37:20.529Z,95802.00
2018-08-10T03:39:51.012Z,95802.00
2018-08-10T03:42:21.407Z,95799.00
2018-08-10T03:44:51.567Z,95802.00
2018-08-10T03:47:21.747Z,95811.00
2018-08-10T03:49:51.960Z,95808.00
2018-08-10T03:52:22.556Z,95812.00
2018-08-10T03:54:52.716Z,95818.00
2018-08-10T03:57:22.880Z,95823.00
2018-08-10T03:59:53.007Z,95839.00
2018-08-10T04:02:23.137Z,95836.00
2018-08-10T04:04:53.363Z,95847.00
2018-08-10T04:07:23.719Z,95844.00
2018-08-10T04:09:55.105Z,95847.00
2018-08-10T04:12:25.292Z,95852.00
2018-08-10T04:14:55.551Z,95854.00
2018-08-10T04:17:26.923Z,95852.00
2018-08-10T04:19:57.321Z,95860.00
2018-08-10T04:22:28.640Z,95863.00
2018-08-10T04:24:59.057Z,95870.00
2018-08-10T04:27:29.215Z,95877.00
2018-08-10T04:29:59.779Z,95883.00
2018-08-10T04:32:30.007Z,95882.00
2018-08-10T04:35:00.965Z,95891.00
2018-08-10T04:37:31.518Z,95878.00
2018-08-10T04:40:01.711Z,95881.00
2018-08-10T04:42:31.880Z,95885.00
2018-08-10T04:45:02.444Z,95891.00
2018-08-10T04:47:33.700Z,95904.00
2018-08-10T04:50:04.247Z,95902.00
2018-08-10T04:52:34.460Z,95902.00
2018-08-10T04:55:05.551Z,95906.00
2018-08-10T04:57:35.684Z,95906.00
2018-08-10T05:00:07.719Z,95905.00
2018-08-10T05:02:38.391Z,95905.00
2018-08-10T05:05:10.185Z,95907.00
2018-08-10T05:07:41.857Z,95916.00
2018-08-10T05:10:12.188Z,95910.00
2018-08-10T05:12:42.639Z,95917.00
2018-08-10T05:15:15.340Z,95922.00
2018-08-10T05:17:46.268Z,95937.00
2018-08-10T05:20:19.898Z,95929.00
2018-08-10T05:22:50.292Z,95945.00
2018-08-10T05:25:20.784Z,95952.00
2018-08-10T05:27:51.001Z,95953.00
2018-08-10T05:30:23.145Z,95953.00
2018-08-10T05:32:59.780Z,95958.00
2018-08-10T05:35:33.880Z,95970.00
2018-08-10T05:38:05.720Z,95974.00
2018-08-10T05:40:37.823Z,95976.00
2018-08-10T05:43:10.092Z,95981.00
2018-08-10T05:45:40.339Z,96000.00
2018-08-10T05:48:12.279Z,95994.00
2018-08-10T05:50:43.003Z,96004.00
2018-08-10T05:53:22.301Z,96004.00
2018-08-10T05:55:53.749Z,96002.00
2018-08-10T05:58:24.476Z,96006.00
2018-08-10T06:00:56.512Z,96013.00
2018-08-10T06:03:27.994Z,96014.00
2018-08-10T06:05:58.120Z,96015.00
2018-08-10T06:08:28.607Z,96022.00
2018-08-10T06:10:59.492Z,96025.00
2018-08-10T06:13:29.730Z,96021.00
2018-08-10T06:16:00.429Z,96028.00
2018-08-10T06:18:30.692Z,96023.00
2018-08-10T06:21:02.072Z,96025.00
2018-08-10T06:23:32.897Z,96033.00
2018-08-10T06:26:04.224Z,96039.00
2018-08-10T06:28:49.042Z,96046.00
2018-08-10T06:31:19.429Z,96052.00
2018-08-10T06:33:51.475Z,96057.00
2018-08-10T06:36:23.634Z,96065.00
2018-08-10T06:38:57.542Z,96070.00
2018-08-10T06:41:30.609Z,96074.00
2018-08-10T06:44:04.906Z,96067.00
2018-08-10T06:46:36.406Z,96073.00
2018-08-10T06:49:09.679Z,96083.00
2018-08-10T06:51:42.392Z,96087.00
2018-08-10T06:54:12.672Z,96087.00
2018-08-10T06:56:43.539Z,96099.00
2018-08-10T06:59:13.968Z,96096.00
2018-08-10T07:01:44.071Z,96101.00
2018-08-10T07:04:14.436Z,96105.00
2018-08-10T07:06:44.703Z,96103.00
2018-08-10T07:09:14.962Z,96110.00
2018-08-10T07:11:45.231Z,96101.00
2018-08-10T07:14:15.608Z,96100.00
2018-08-10T07:16:45.683Z,96110.00
2018-08-10T07:19:15.731Z,96114.00
2018-08-10T07:21:45.987Z,96105.00
2018-08-10T07:24:16.232Z,96110.00
2018-08-10T07:26:46.472Z,96120.00
2018-08-10T07:29:16.959Z,96132.00
2018-08-10T07:31:47.742Z,96129.00
2018-08-10T07:34:17.936Z,96131.00
2018-08-10T07:36:48.420Z,96131.00
2018-08-10T07:39:18.482Z,96141.00
2018-08-10T07:41:48.549Z,96144.00
2018-08-10T07:44:18.693Z,96149.00
2018-08-10T07:46:48.703Z,96152.00
2018-08-10T07:49:58.397Z,96156.00
2018-08-10T07:52:28.512Z,96155.00
2018-08-10T07:54:59.439Z,96156.00
2018-08-10T07:57:30.147Z,96159.00
2018-08-10T08:00:00.334Z,96168.00
2018-08-10T08:02:30.466Z,96164.00
2018-08-10T08:05:01.096Z,96173.00
2018-08-10T08:07:31.249Z,96172.00
2018-08-10T08:10:02.031Z,96175.00
2018-08-10T08:12:32.872Z,96177.00
2018-08-10T08:15:05.795Z,96176.00
2018-08-10T08:17:36.557Z,96174.00
2018-08-10T08:20:08.088Z,96171.00
2018-08-10T08:22:39.763Z,96172.00
2018-08-10T08:25:09.991Z,96175.00
2018-08-10T08:27:40.009Z,96166.00
2018-08-10T08:30:11.061Z,96166.00
2018-08-10T08:32:41.183Z,96172.00
2018-08-10T08:35:11.490Z,96161.00
2018-08-10T08:37:41.504Z,96167.00
2018-08-10T08:40:18.033Z,96162.00
2018-08-10T08:42:48.908Z,96167.00
2018-08-10T08:46:22.718Z,96172.00
2018-08-10T08:48:53.611Z,96173.00
2018-08-10T08:51:27.469Z,96172.00
2018-08-10T08:54:08.221Z,96174.00
2018-08-10T08:56:44.558Z,96181.00
2018-08-10T08:59:14.783Z,96182.00
2018-08-10T09:01:44.833Z,96185.00
2018-08-10T09:04:36.319Z,96185.00
2018-08-10T09:07:06.553Z,96180.00
2018-08-10T09:09:40.413Z,96186.00
2018-08-10T09:12:10.604Z,96188.00
2018-08-10T09:14:51.760Z,96193.00
2018-08-10T09:17:22.175Z,96191.00
2018-08-10T09:19:52.381Z,96192.00
2018-08-10T09:22:22.750Z,96185.00
2018-08-10T09:24:53.036Z,96192.00
2018-08-10T09:27:23.580Z,96197.00
2018-08-10T09:29:53.855Z,96201.00
2018-08-10T09:32:24.213Z,96199.00
2018-08-10T09:34:54.475Z,96202.00
2018-08-10T09:37:24.545Z,96199.00
2018-08-10T09:39:54.719Z,96195.00
2018-08-10T09:42:27.256Z,96192.00
2018-08-10T09:44:57.701Z,96197.00
2018-08-10T09:47:27.832Z,96203.00
2018-08-10T09:49:58.187Z,96194.00
2018-08-10T09:52:28.372Z,96205.00
2018-08-10T09:55:36.665Z,96205.00
2018-08-10T09:58:15.207Z,96205.00
2018-08-10T10:00:50.453Z,96198.00
2018-08-10T10:03:25.650Z,96200.00
2018-08-10T10:05:58.998Z,96202.00
2018-08-10T10:08:29.031Z,96199.00
2018-08-10T10:10:59.845Z,96186.00
2018-08-10T10:13:30.006Z,96195.00
2018-08-10T10:16:01.108Z,96190.00
2018-08-10T10:18:31.452Z,96192.00
2018-08-10T10:21:02.108Z,96187.00
2018-08-10T10:23:32.459Z,96184.00
2018-08-10T10:26:03.028Z,96188.00
2018-08-10T10:28:33.463Z,96185.00
2018-08-10T10:31:05.265Z,96187.00
2018-08-10T10:33:36.643Z,96186.00
2018-08-10T10:36:06.881Z,96186.00
2018-08-10T10:38:37.015Z,96185.00
2018-08-10T10:41:07.128Z,96178.00
2018-08-10T10:43:37.465Z,96171.00
2018-08-10T10:46:08.568Z,96174.00
2018-08-10T10:48:38.703Z,96173.00
2018-08-10T10:51:09.256Z,96168.00
2018-08-10T10:53:39.368Z,96172.00
2018-08-10T10:56:09.511Z,96176.00
2018-08-10T10:58:39.591Z,96176.00
2018-08-10T11:01:10.443Z,96174.00
2018-08-10T11:03:42.655Z,96177.00
2018-08-10T11:06:12.925Z,96180.00
2018-08-10T11:08:43.394Z,96178.00
2018-08-10T11:11:14.508Z,96186.00
2018-08-10T11:13:46.293Z,96188.00
2018-08-10T11:16:16.548Z,96189.00
2018-08-10T11:18:46.804Z,96190.00
2018-08-10T11:21:18.144Z,96201.00
2018-08-10T11:23:48.275Z,96192.00
2018-08-10T11:26:18.532Z,96195.00
2018-08-10T11:28:49.053Z,96196.00
2018-08-10T11:31:19.163Z,96196.00
2018-08-10T11:33:49.436Z,96195.00
2018-08-10T11:36:19.506Z,96193.00
2018-08-10T11:38:49.683Z,96194.00
2018-08-10T11:41:19.898Z,96195.00
2018-08-10T11:43:50.212Z,96201.00
2018-08-10T11:46:20.732Z,96197.00
2018-08-10T11:48:52.011Z,96197.00
2018-08-10T11:51:22.110Z,96203.00
2018-08-10T11:53:57.876Z,96202.00
2018-08-10T11:56:28.062Z,96193.00
2018-08-10T11:58:58.215Z,96199.00
2018-08-10T12:01:28.520Z,96185.00
2018-08-10T12:03:58.692Z,96188.00
2018-08-10T12:06:29.006Z,96184.00
2018-08-10T12:08:59.755Z,96190.00
2018-08-10T12:11:36.566Z,96181.00
2018-08-10T12:14:16.508Z,96185.00
2018-08-10T12:16:54.947Z,96178.00
2018-08-10T12:19:25.172Z,96191.00
2018-08-10T12:21:56.682Z,96182.00
2018-08-10T12:24:35.094Z,96186.00
2018-08-10T12:27:05.287Z,96170.00
2018-08-10T12:29:35.586Z,96168.00
2018-08-10T12:32:06.451Z,96169.00
2018-08-10T12:34:36.576Z,96175.00
2018-08-10T12:37:07.216Z,96177.00
2018-08-10T12:39:37.712Z,96176.00
2018-08-10T12:42:07.801Z,96169.00
2018-08-10T12:44:38.015Z,96167.00
2018-08-10T12:47:08.160Z,96172.00
2018-08-10T12:49:38.453Z,96180.00
2018-08-10T12:52:08.636Z,96176.00
2018-08-10T12:54:38.793Z,96178.00
2018-08-10T12:57:09.106Z,96172.00
2018-08-10T12:59:39.305Z,96164.00
2018-08-10T13:02:09.633Z,96158.00
2018-08-10T13:04:40.100Z,96158.00
2018-08-10T13:07:10.367Z,96167.00
2018-08-10T13:09:40.524Z,96175.00
2018-08-10T13:12:10.727Z,96168.00
2018-08-10T13:14:41.253Z,96172.00
2018-08-10T13:17:12.547Z,96165.00
2018-08-10T13:19:42.754Z,96163.00
2018-08-10T13:22:13.892Z,96162.00
2018-08-10T13:24:44.025Z,96159.00
2018-08-10T13:27:14.328Z,96159.00
2018-08-10T13:29:44.589Z,96160.00
2018-08-10T13:32:14.903Z,96166.00
2018-08-10T13:34:45.160Z,96163.00
2018-08-10T13:37:16.262Z,96158.00
2018-08-10T13:39:46.571Z,96157.00
2018-08-10T13:42:16.812Z,96153.00
2018-08-10T13:44:46.939Z,96143.00
2018-08-10T13:47:17.401Z,96146.00
2018-08-10T13:49:47.900Z,96152.00
2018-08-10T13:52:18.326Z,96156.00
2018-08-10T13:54:48.572Z,96136.00
2018-08-10T13:57:18.643Z,96144.00
2018-08-10T13:59:49.051Z,96146.00
2018-08-10T14:02:19.212Z,96145.00
2018-08-10T14:04:49.400Z,96144.00
2018-08-10T14:07:19.600Z,96139.00
2018-08-10T14:09:49.977Z,96147.00
2018-08-10T14:12:20.329Z,96147.00
2018-08-10T14:14:50.647Z,96151.00
2018-08-10T14:17:20.938Z,96152.00
2018-08-10T14:19:52.472Z,96139.00
2018-08-10T14:22:24.027Z,96138.00
2018-08-10T14:24:55.830Z,96135.00
2018-08-10T14:27:26.164Z,96143.00
2018-08-10T14:29:56.457Z,96135.00
2018-08-10T14:32:26.708Z,96129.00
2018-08-10T14:34:57.104Z,96127.00
2018-08-10T14:37:27.327Z,96131.00
2018-08-10T14:39:57.488Z,96145.00
2018-08-10T14:42:27.850Z,96141.00
2018-08-10T14:44:58.122Z,96147.00
2018-08-10T14:47:28.502Z,96138.00
2018-08-10T14:49:58.872Z,96132.00
2018-08-10T14:52:28.995Z,96126.00
2018-08-10T14:54:59.084Z,96130.00
2018-08-10T14:57:29.464Z,96129.00
2018-08-10T14:59:59.745Z,96137.00
2018-08-10T15:02:30.061Z,96125.00
2018-08-10T15:05:00.299Z,96141.00
2018-08-10T15:07:31.044Z,96132.00
2018-08-10T15:10:01.811Z,96131.00
2018-08-10T15:12:32.176Z,96122.00
2018-08-10T15:15:02.528Z,96117.00
2018-08-10T15:17:32.751Z,96122.00
2018-08-10T15:20:03.088Z,96121.00
2018-08-10T15:22:33.350Z,96119.00
2018-08-10T15:25:03.876Z,96122.00
2018-08-10T15:27:34.051Z,96117.00
2018-08-10T15:30:05.855Z,96110.00
2018-08-10T15:32:36.073Z,96117.00
2018-08-10T15:35:07.124Z,96115.00
2018-08-10T15:37:40.129Z,96114.00
2018-08-10T15:40:12.229Z,96116.00
2018-08-10T15:42:42.421Z,96115.00
2018-08-10T15:45:16.708Z,96113.00
2018-08-10T15:47:47.529Z,96110.00
2018-08-10T15:50:17.771Z,96116.00
2018-08-10T15:52:47.993Z,96106.00
2018-08-10T15:55:18.198Z,96094.00
2018-08-10T15:57:48.420Z,96094.00
2018-08-10T16:00:23.514Z,96102.00
2018-08-10T16:02:54.873Z,96096.00
2018-08-10T16:05:25.339Z,96100.00
2018-08-10T16:07:55.729Z,96096.00
2018-08-10T16:10:27.751Z,96099.00
2018-08-10T16:12:58.797Z,96103.00
2018-08-10T16:15:29.123Z,96100.00
2018-08-10T16:18:01.050Z,96104.00
2018-08-10T16:20:32.324Z,96106.00
2018-08-10T16:23:03.039Z,96104.00
2018-08-10T16:25:35.743Z,96113.00
2018-08-10T16:28:06.901Z,96107.00
2018-08-10T16:30:37.856Z,96103.00
2018-08-10T16:33:09.593Z,96104.00
2018-08-10T16:35:39.828Z,96108.00
2018-08-10T16:38:11.257Z,96102.00
2018-08-10T16:40:41.431Z,96102.00
2018-08-10T16:43:11.641Z,96102.00
2018-08-10T16:45:42.325Z,96109.00
2018-08-10T16:48:13.258Z,96114.00
2018-08-10T16:50:44.031Z,96109.00
2018-08-10T16:53:14.144Z,96107.00
2018-08-10T16:55:44.280Z,96108.00
2018-08-10T16:58:14.611Z,96103.00
2018-08-10T17:00:47.881Z,96102.00
2018-08-10T17:03:22.768Z,96104.00
2018-08-10T17:05:53.843Z,96106.00
2018-08-10T17:08:24.159Z,96110.00
2018-08-10T17:10:54.519Z,96113.00
2018-08-10T17:13:24.824Z,96110.00
2018-08-10T17:15:55.032Z,96109.00
2018-08-10T17:18:25.879Z,96111.00
2018-08-10T17:20:56.215Z,96112.00
2018-08-10T17:23:26.629Z,96109.00
2018-08-10T17:25:56.972Z,96117.00
2018-08-10T17:28:27.074Z,96117.00
2018-08-10T17:30:57.338Z,96114.00
2018-08-10T17:33:27.636Z,96121.00
2018-08-10T17:35:57.983Z,96117.00
2018-08-10T17:38:28.189Z,96116.00
2018-08-10T17:40:58.373Z,96112.00
2018-08-10T17:43:28.680Z,96120.00
2018-08-10T17:45:59.121Z,96123.00
2018-08-10T17:48:34.270Z,96127.00
2018-08-10T17:51:04.783Z,96125.00
2018-08-10T17:53:35.009Z,96127.00
2018-08-10T17:56:05.289Z,96132.00
2018-08-10T17:58:35.556Z,96131.00
2018-08-10T18:01:05.730Z,96130.00
2018-08-10T18:03:36.252Z,96134.00
2018-08-10T18:06:06.779Z,96137.00
2018-08-10T18:08:37.112Z,96139.00
2018-08-10T18:11:07.389Z,96140.00
2018-08-10T18:13:37.511Z,96145.00
2018-08-10T18:16:07.907Z,96143.00
2018-08-10T18:18:38.058Z,96138.00
2018-08-10T18:21:08.179Z,96146.00
2018-08-10T18:23:38.471Z,96150.00
2018-08-10T18:26:08.904Z,96153.00
2018-08-10T18:28:39.083Z,96152.00
2018-08-10T18:31:09.171Z,96151.00
2018-08-10T18:33:39.505Z,96152.00
2018-08-10T18:36:10.409Z,96156.00
2018-08-10T18:38:41.064Z,96162.00
2018-08-10T18:41:11.344Z,96160.00
2018-08-10T18:43:41.612Z,96161.00
2018-08-10T18:46:11.790Z,96164.00
2018-08-10T18:48:41.966Z,96167.00
2018-08-10T18:51:14.972Z,96171.00
2018-08-10T18:54:00.897Z,96168.00
2018-08-10T18:56:31.080Z,96172.00
2018-08-10T18:59:01.260Z,96169.00
2018-08-10T19:01:31.705Z,96168.00
2018-08-10T19:04:01.984Z,96168.00
2018-08-10T19:06:32.404Z,96168.00
2018-08-10T19:09:02.553Z,96170.00
2018-08-10T19:11:33.070Z,96172.00
2018-08-10T19:14:03.627Z,96171.00
2018-08-10T19:16:33.911Z,96168.00
2018-08-10T19:19:04.605Z,96171.00
2018-08-10T19:21:34.797Z,96177.00
2018-08-10T19:24:04.937Z,96175.00
2018-08-10T19:26:35.148Z,96178.00
2018-08-10T19:29:08.011Z,96176.00
2018-08-10T19:31:39.331Z,96176.00
2018-08-10T19:34:09.583Z,96176.00
2018-08-10T19:36:39.713Z,96179.00
2018-08-10T19:39:11.028Z,96175.00
2018-08-10T19:44:08.043Z,96180.00
2018-08-10T19:46:38.873Z,96177.00
2018-08-10T19:49:09.203Z,96175.00
2018-08-10T19:51:39.948Z,96176.00
2018-08-10T19:54:10.455Z,96177.00
2018-08-10T19:56:40.801Z,96176.00
2018-08-10T19:59:11.683Z,96171.00
2018-08-10T20:01:42.059Z,96175.00
2018-08-10T20:04:12.221Z,96173.00
2018-08-10T20:06:42.430Z,96173.00
2018-08-10T20:09:13.619Z,96176.00
2018-08-10T20:11:46.181Z,96175.00
2018-08-10T20:14:16.737Z,96175.00
2018-08-10T20:16:47.139Z,96173.00
2018-08-10T20:19:17.320Z,96174.00
2018-08-10T20:21:47.481Z,96177.00
2018-08-10T20:24:17.919Z,96177.00
2018-08-10T20:26:48.315Z,96175.00
2018-08-10T20:29:18.494Z,96178.00
2018-08-10T20:31:48.866Z,96183.00
2018-08-10T20:34:19.429Z,96173.00
2018-08-10T20:36:49.834Z,96180.00
2018-08-10T20:39:20.332Z,96181.00
2018-08-10T20:41:50.655Z,96184.00
2018-08-10T20:44:20.992Z,96179.00
2018-08-10T20:46:51.292Z,96182.00
2018-08-10T20:49:21.554Z,96185.00
2018-08-10T20:51:51.979Z,96183.00
2018-08-10T20:54:22.215Z,96182.00
2018-08-10T20:56:52.589Z,96181.00
2018-08-10T20:59:22.860Z,96180.00
2018-08-10T21:01:53.152Z,96176.00
2018-08-10T21:04:23.494Z,96178.00
2018-08-10T21:06:54.098Z,96179.00
2018-08-10T21:09:24.172Z,96170.00
2018-08-10T21:11:54.581Z,96170.00
2018-08-10T21:14:24.804Z,96172.00
2018-08-10T21:16:55.460Z,96173.00
2018-08-10T21:19:25.594Z,96166.00
2018-08-10T21:21:55.963Z,96170.00
2018-08-10T21:24:26.229Z,96170.00
2018-08-10T21:26:56.415Z,96171.00
2018-08-10T21:29:26.617Z,96173.00
2018-08-10T21:31:57.327Z,96176.00
2018-08-10T21:34:27.532Z,96183.00
2018-08-10T21:36:57.799Z,96188.00
2018-08-10T21:39:27.903Z,96184.00
2018-08-10T21:41:58.328Z,96190.00
2018-08-10T21:44:28.677Z,96190.00
2018-08-10T21:46:59.115Z,96193.00
2018-08-10T21:49:29.528Z,96195.00
2018-08-10T21:51:59.756Z,96201.00
2018-08-10T21:54:30.165Z,96200.00
2018-08-10T21:57:00.307Z,96191.00
2018-08-10T21:59:30.858Z,96197.00
2018-08-10T22:02:01.140Z,96199.00
2018-08-10T22:04:31.552Z,96201.00
2018-08-10T22:07:01.908Z,96197.00
2018-08-10T22:09:32.208Z,96195.00
2018-08-10T22:12:03.072Z,96195.00
2018-08-10T22:14:38.738Z,96193.00
2018-08-10T22:17:15.923Z,96192.00
2018-08-10T22:19:47.004Z,96196.00
2018-08-10T22:22:17.504Z,96196.00
2018-08-10T22:24:57.032Z,96194.00
2018-08-10T22:27:27.355Z,96195.00
2018-08-10T22:29:57.543Z,96191.00
2018-08-10T22:32:27.745Z,96192.00
2018-08-10T22:34:58.027Z,96193.00
2018-08-10T22:37:28.264Z,96192.00
2018-08-10T22:39:58.579Z,96197.00
2018-08-10T22:42:28.874Z,96197.00
2018-08-10T22:44:59.034Z,96194.00
2018-08-10T22:47:29.365Z,96190.00
2018-08-10T22:49:59.609Z,96183.00
2018-08-10T22:52:30.637Z,96186.00
2018-08-10T22:55:01.278Z,96185.00
2018-08-10T22:57:31.461Z,96180.00
2018-08-10T23:00:02.478Z,96173.00
2018-08-10T23:02:32.874Z,96172.00
2018-08-10T23:05:03.432Z,96171.00
2018-08-10T23:07:33.673Z,96168.00
2018-08-10T23:10:05.842Z,96167.00
2018-08-10T23:12:36.180Z,96164.00
2018-08-10T23:15:07.831Z,96162.00
2018-08-10T23:17:38.062Z,96158.00
2018-08-10T23:20:13.273Z,96158.00
2018-08-10T23:22:44.059Z,96160.00
2018-08-10T23:25:14.894Z,96155.00
2018-08-10T23:27:45.835Z,96155.00
2018-08-10T23:30:17.012Z,96152.00
2018-08-10T23:32:47.396Z,96159.00
2018-08-10T23:35:17.692Z,96160.00
2018-08-10T23:37:48.017Z,96157.00
2018-08-10T23:40:19.918Z,96159.00
2018-08-10T23:42:49.917Z,96155.00
2018-08-10T23:45:22.090Z,96157.00
2018-08-10T23:47:52.783Z,96153.00
2018-08-10T23:50:23.322Z,96143.00
2018-08-10T23:52:53.570Z,96151.00
2018-08-10T23:55:26.291Z,96147.00
2018-08-10T23:57:56.529Z,96144.00
